sensor_id;sensor_type;location;lat;lon;timestamp;pressure;altitude;pressure_sealevel;temperature;humidity
10638;BME280;47007;49.252;8.904;2023-07-29T00:00:31;99121.69;;;18.58;100.00
10638;BME280;47007;49.252;8.904;2023-07-29T00:01:12;99133.06;;;18.65;100.00
10638;BME280;47007;49.252;8.904;2023-07-29T00:01:54;99130.91;;;18.67;100.00
10638;BME280;47007;49.252;8.904;2023-07-29T00:02:36;99134.66;;;18.66;100.00
10638;BME280;47007;49.252;8.904;2023-07-29T00:03:17;99128.28;;;18.72;100.00
10638;BME280;47007;49.252;8.904;2023-07-29T00:03:59;99113.94;;;18.61;100.00
10638;BME280;47007;49.252;8.904;2023-07-29T00:04:41;99113.03;;;18.56;100.00
10638;BME280;47007;49.252;8.904;2023-07-29T00:05:23;99121.50;;;18.64;100.00
10638;BME280;47007;49.252;8.904;2023-07-29T00:06:04;99078.28;;;18.44;100.00
10638;BME280;47007;49.252;8.904;2023-07-29T00:06:46;99103.78;;;18.63;100.00
10638;BME280;47007;49.252;8.904;2023-07-29T00:07:28;99124.03;;;18.76;100.00
10638;BME280;47007;49.252;8.904;2023-07-29T00:08:09;99123.50;;;18.79;100.00
10638;BME280;47007;49.252;8.904;2023-07-29T00:08:51;99128.09;;;18.79;100.00
10638;BME280;47007;49.252;8.904;2023-07-29T00:09:33;99124.88;;;18.82;100.00
10638;BME280;47007;49.252;8.904;2023-07-29T00:10:14;99131.63;;;18.84;100.00
10638;BME280;47007;49.252;8.904;2023-07-29T00:10:56;99122.75;;;18.84;100.00
10638;BME280;47007;49.252;8.904;2023-07-29T00:11:38;99120.31;;;18.82;100.00
10638;BME280;47007;49.252;8.904;2023-07-29T00:12:19;99106.63;;;18.79;100.00
10638;BME280;47007;49.252;8.904;2023-07-29T00:13:01;99119.88;;;18.90;100.00
10638;BME280;47007;49.252;8.904;2023-07-29T00:13:43;99117.19;;;18.90;100.00
10638;BME280;47007;49.252;8.904;2023-07-29T00:14:25;99100.44;;;18.78;100.00
10638;BME280;47007;49.252;8.904;2023-07-29T00:15:07;99094.94;;;18.68;100.00
10638;BME280;47007;49.252;8.904;2023-07-29T00:15:49;99117.06;;;18.80;100.00
10638;BME280;47007;49.252;8.904;2023-07-29T00:16:31;99078.75;;;18.58;100.00
10638;BME280;47007;49.252;8.904;2023-07-29T00:17:13;99102.25;;;18.73;100.00
10638;BME280;47007;49.252;8.904;2023-07-29T00:17:54;99124.84;;;18.77;100.00
10638;BME280;47007;49.252;8.904;2023-07-29T00:18:36;99122.16;;;18.77;100.00
10638;BME280;47007;49.252;8.904;2023-07-29T00:19:18;99114.34;;;18.75;100.00
10638;BME280;47007;49.252;8.904;2023-07-29T00:20:01;99047.63;;;18.35;100.00
10638;BME280;47007;49.252;8.904;2023-07-29T00:20:44;99111.97;;;18.79;100.00
10638;BME280;47007;49.252;8.904;2023-07-29T00:21:25;99118.69;;;18.81;100.00
10638;BME280;47007;49.252;8.904;2023-07-29T00:22:07;99119.75;;;18.80;100.00
10638;BME280;47007;49.252;8.904;2023-07-29T00:22:50;99120.56;;;18.81;100.00
10638;BME280;47007;49.252;8.904;2023-07-29T00:23:34;99118.44;;;18.83;100.00
10638;BME280;47007;49.252;8.904;2023-07-29T00:24:16;99116.81;;;18.82;100.00
10638;BME280;47007;49.252;8.904;2023-07-29T00:24:57;99116.81;;;18.82;100.00
10638;BME280;47007;49.252;8.904;2023-07-29T00:25:40;99113.13;;;18.88;100.00
10638;BME280;47007;49.252;8.904;2023-07-29T00:26:22;99091.28;;;18.79;100.00
10638;BME280;47007;49.252;8.904;2023-07-29T00:27:04;99110.53;;;18.98;100.00
10638;BME280;47007;49.252;8.904;2023-07-29T00:27:45;99096.22;;;18.87;100.00
10638;BME280;47007;49.252;8.904;2023-07-29T00:28:28;99082.16;;;18.80;100.00
10638;BME280;47007;49.252;8.904;2023-07-29T00:29:09;99069.28;;;18.77;100.00
10638;BME280;47007;49.252;8.904;2023-07-29T00:29:51;99100.66;;;19.04;100.00
10638;BME280;47007;49.252;8.904;2023-07-29T00:30:33;99098.50;;;19.06;100.00
10638;BME280;47007;49.252;8.904;2023-07-29T00:31:15;99104.44;;;19.08;100.00
10638;BME280;47007;49.252;8.904;2023-07-29T00:31:56;99106.06;;;19.09;100.00
10638;BME280;47007;49.252;8.904;2023-07-29T00:32:38;99113.06;;;19.10;100.00
10638;BME280;47007;49.252;8.904;2023-07-29T00:33:20;99105.50;;;19.07;100.00
10638;BME280;47007;49.252;8.904;2023-07-29T00:34:02;99108.97;;;19.02;100.00
10638;BME280;47007;49.252;8.904;2023-07-29T00:34:44;99112.41;;;18.97;100.00
10638;BME280;47007;49.252;8.904;2023-07-29T00:35:25;99111.03;;;18.95;100.00
10638;BME280;47007;49.252;8.904;2023-07-29T00:36:08;99100.53;;;18.88;100.00
10638;BME280;47007;49.252;8.904;2023-07-29T00:36:50;99077.28;;;18.72;100.00
10638;BME280;47007;49.252;8.904;2023-07-29T00:37:33;99112.06;;;18.89;100.00
10638;BME280;47007;49.252;8.904;2023-07-29T00:38:15;99101.84;;;18.86;100.00
10638;BME280;47007;49.252;8.904;2023-07-29T00:38:56;99106.97;;;18.87;100.00
10638;BME280;47007;49.252;8.904;2023-07-29T00:39:38;99040.72;;;18.44;100.00
10638;BME280;47007;49.252;8.904;2023-07-29T00:40:22;99098.59;;;18.84;100.00
10638;BME280;47007;49.252;8.904;2023-07-29T00:41:04;99108.03;;;18.86;100.00
10638;BME280;47007;49.252;8.904;2023-07-29T00:41:46;99084.00;;;18.75;100.00
10638;BME280;47007;49.252;8.904;2023-07-29T00:42:28;99070.25;;;18.66;100.00
10638;BME280;47007;49.252;8.904;2023-07-29T00:43:10;99093.97;;;18.79;100.00
10638;BME280;47007;49.252;8.904;2023-07-29T00:43:51;99079.47;;;18.75;100.00
10638;BME280;47007;49.252;8.904;2023-07-29T00:44:33;99056.69;;;18.56;100.00
10638;BME280;47007;49.252;8.904;2023-07-29T00:45:15;99035.66;;;18.48;100.00
10638;BME280;47007;49.252;8.904;2023-07-29T00:45:57;99091.03;;;18.81;100.00
10638;BME280;47007;49.252;8.904;2023-07-29T00:46:40;99077.78;;;18.69;100.00
10638;BME280;47007;49.252;8.904;2023-07-29T00:47:23;99089.97;;;18.82;100.00
10638;BME280;47007;49.252;8.904;2023-07-29T00:48:06;99067.00;;;18.64;100.00
10638;BME280;47007;49.252;8.904;2023-07-29T00:48:48;99092.41;;;18.83;100.00
10638;BME280;47007;49.252;8.904;2023-07-29T00:49:31;99074.09;;;18.75;100.00
10638;BME280;47007;49.252;8.904;2023-07-29T00:50:14;99074.19;;;18.85;100.00
10638;BME280;47007;49.252;8.904;2023-07-29T00:50:57;99049.16;;;18.53;100.00
10638;BME280;47007;49.252;8.904;2023-07-29T00:51:38;99067.09;;;18.74;100.00
10638;BME280;47007;49.252;8.904;2023-07-29T00:52:20;99095.16;;;18.88;100.00
10638;BME280;47007;49.252;8.904;2023-07-29T00:53:02;99074.41;;;18.79;100.00
10638;BME280;47007;49.252;8.904;2023-07-29T00:53:44;99080.53;;;18.79;100.00
10638;BME280;47007;49.252;8.904;2023-07-29T00:54:26;99065.94;;;18.65;100.00
10638;BME280;47007;49.252;8.904;2023-07-29T00:55:08;99080.28;;;18.81;100.00
10638;BME280;47007;49.252;8.904;2023-07-29T00:55:50;99078.41;;;18.76;100.00
10638;BME280;47007;49.252;8.904;2023-07-29T00:56:32;99080.28;;;18.81;100.00
10638;BME280;47007;49.252;8.904;2023-07-29T00:57:15;99082.22;;;18.85;100.00
10638;BME280;47007;49.252;8.904;2023-07-29T00:57:58;98978.50;;;18.20;100.00
10638;BME280;47007;49.252;8.904;2023-07-29T00:58:40;99077.91;;;18.84;100.00
10638;BME280;47007;49.252;8.904;2023-07-29T00:59:22;99087.34;;;18.87;100.00
10638;BME280;47007;49.252;8.904;2023-07-29T01:00:04;99080.66;;;18.89;100.00
10638;BME280;47007;49.252;8.904;2023-07-29T01:00:47;99086.03;;;18.89;100.00
10638;BME280;47007;49.252;8.904;2023-07-29T01:01:29;99079.31;;;18.92;100.00
10638;BME280;47007;49.252;8.904;2023-07-29T01:02:11;99004.28;;;18.48;100.00
10638;BME280;47007;49.252;8.904;2023-07-29T01:03:18;99078.09;;;19.05;100.00
10638;BME280;47007;49.252;8.904;2023-07-29T01:04:00;99077.03;;;19.06;100.00
10638;BME280;47007;49.252;8.904;2023-07-29T01:04:42;99057.06;;;18.91;100.00
10638;BME280;47007;49.252;8.904;2023-07-29T01:05:32;99068.94;;;19.00;100.00
10638;BME280;47007;49.252;8.904;2023-07-29T01:06:50;99072.69;;;18.99;100.00
10638;BME280;47007;49.252;8.904;2023-07-29T01:07:55;99037.59;;;18.79;100.00
10638;BME280;47007;49.252;8.904;2023-07-29T01:09:31;99063.81;;;18.99;100.00
10638;BME280;47007;49.252;8.904;2023-07-29T01:10:46;99023.63;;;18.77;100.00
10638;BME280;47007;49.252;8.904;2023-07-29T01:11:55;99055.47;;;18.95;100.00
10638;BME280;47007;49.252;8.904;2023-07-29T01:13:33;99068.88;;;18.95;100.00
10638;BME280;47007;49.252;8.904;2023-07-29T01:16:19;99060.28;;;18.93;100.00
10638;BME280;47007;49.252;8.904;2023-07-29T01:17:04;99066.72;;;18.92;100.00
10638;BME280;47007;49.252;8.904;2023-07-29T01:17:52;99060.28;;;18.93;100.00
10638;BME280;47007;49.252;8.904;2023-07-29T01:18:37;99014.00;;;18.54;100.00
10638;BME280;47007;49.252;8.904;2023-07-29T01:19:41;99058.06;;;18.85;100.00
10638;BME280;47007;49.252;8.904;2023-07-29T01:20:24;99058.16;;;18.95;100.00
10638;BME280;47007;49.252;8.904;2023-07-29T01:21:08;99055.38;;;18.85;100.00
10638;BME280;47007;49.252;8.904;2023-07-29T01:21:51;99000.53;;;18.49;100.00
10638;BME280;47007;49.252;8.904;2023-07-29T01:22:35;99058.66;;;18.92;100.00
10638;BME280;47007;49.252;8.904;2023-07-29T01:23:29;99065.66;;;18.93;100.00
10638;BME280;47007;49.252;8.904;2023-07-29T01:24:12;99020.34;;;18.70;100.00
10638;BME280;47007;49.252;8.904;2023-07-29T01:24:54;99013.59;;;18.67;100.00
10638;BME280;47007;49.252;8.904;2023-07-29T01:25:36;99061.91;;;18.94;100.00
10638;BME280;47007;49.252;8.904;2023-07-29T01:26:19;99053.59;;;18.96;100.00
10638;BME280;47007;49.252;8.904;2023-07-29T01:27:01;99043.56;;;18.86;100.00
10638;BME280;47007;49.252;8.904;2023-07-29T01:27:46;99043.78;;;18.80;100.00
10638;BME280;47007;49.252;8.904;2023-07-29T01:28:28;99029.53;;;18.79;100.00
10638;BME280;47007;49.252;8.904;2023-07-29T01:29:10;98971.84;;;18.50;100.00
10638;BME280;47007;49.252;8.904;2023-07-29T01:29:56;99001.53;;;18.65;100.00
10638;BME280;47007;49.252;8.904;2023-07-29T01:30:40;99056.91;;;19.08;100.00
10638;BME280;47007;49.252;8.904;2023-07-29T01:31:34;99061.25;;;19.14;100.00
10638;BME280;47007;49.252;8.904;2023-07-29T01:32:56;99049.16;;;19.17;100.00
10638;BME280;47007;49.252;8.904;2023-07-29T01:33:58;99051.59;;;19.13;100.00
10638;BME280;47007;49.252;8.904;2023-07-29T01:34:53;99058.34;;;19.21;100.00
10638;BME280;47007;49.252;8.904;2023-07-29T01:36:01;99047.59;;;19.21;100.00
10638;BME280;47007;49.252;8.904;2023-07-29T01:36:45;99045.72;;;19.21;100.00
10638;BME280;47007;49.252;8.904;2023-07-29T01:37:31;99047.91;;;19.24;100.00
10638;BME280;47007;49.252;8.904;2023-07-29T01:38:19;99040.66;;;19.25;100.00
10638;BME280;47007;49.252;8.904;2023-07-29T01:39:02;99041.22;;;19.27;100.00
10638;BME280;47007;49.252;8.904;2023-07-29T01:39:45;99009.38;;;19.09;100.00
10638;BME280;47007;49.252;8.904;2023-07-29T01:40:27;99025.28;;;19.15;100.00
10638;BME280;47007;49.252;8.904;2023-07-29T01:41:11;99040.94;;;19.28;100.00
10638;BME280;47007;49.252;8.904;2023-07-29T01:41:52;99027.78;;;19.27;100.00
10638;BME280;47007;49.252;8.904;2023-07-29T01:42:34;98962.97;;;18.81;100.00
10638;BME280;47007;49.252;8.904;2023-07-29T01:43:16;99029.41;;;19.28;100.00
10638;BME280;47007;49.252;8.904;2023-07-29T01:44:01;99025.59;;;19.24;100.00
10638;BME280;47007;49.252;8.904;2023-07-29T01:44:44;99029.91;;;19.25;100.00
10638;BME280;47007;49.252;8.904;2023-07-29T01:45:26;99028.28;;;19.24;100.00
10638;BME280;47007;49.252;8.904;2023-07-29T01:46:09;98954.09;;;18.81;100.00
10638;BME280;47007;49.252;8.904;2023-07-29T01:46:52;99011.06;;;19.20;100.00
10638;BME280;47007;49.252;8.904;2023-07-29T01:47:34;99037.97;;;19.30;100.00
10638;BME280;47007;49.252;8.904;2023-07-29T01:48:16;99041.22;;;19.32;100.00
10638;BME280;47007;49.252;8.904;2023-07-29T01:48:57;99033.16;;;19.27;100.00
10638;BME280;47007;49.252;8.904;2023-07-29T01:49:39;99015.09;;;19.22;100.00
10638;BME280;47007;49.252;8.904;2023-07-29T01:50:21;98990.25;;;19.05;100.00
10638;BME280;47007;49.252;8.904;2023-07-29T01:51:03;99008.91;;;19.22;100.00
10638;BME280;47007;49.252;8.904;2023-07-29T01:51:44;98958.78;;;18.90;100.00
10638;BME280;47007;49.252;8.904;2023-07-29T01:52:26;99020.09;;;19.09;100.00
10638;BME280;47007;49.252;8.904;2023-07-29T01:53:08;98964.84;;;18.81;100.00
10638;BME280;47007;49.252;8.904;2023-07-29T01:53:49;99026.91;;;19.21;100.00
10638;BME280;47007;49.252;8.904;2023-07-29T01:54:31;99026.09;;;19.16;100.00
10638;BME280;47007;49.252;8.904;2023-07-29T01:55:13;98992.88;;;18.95;100.00
10638;BME280;47007;49.252;8.904;2023-07-29T01:55:55;99015.03;;;19.12;100.00
10638;BME280;47007;49.252;8.904;2023-07-29T01:56:38;99028.78;;;19.16;100.00
10638;BME280;47007;49.252;8.904;2023-07-29T01:57:20;99027.44;;;19.18;100.00
10638;BME280;47007;49.252;8.904;2023-07-29T01:58:02;99009.88;;;19.06;100.00
10638;BME280;47007;49.252;8.904;2023-07-29T01:58:43;98967.78;;;18.79;100.00
10638;BME280;47007;49.252;8.904;2023-07-29T01:59:25;98986.13;;;18.87;100.00
10638;BME280;47007;49.252;8.904;2023-07-29T02:00:07;99008.25;;;19.05;100.00
10638;BME280;47007;49.252;8.904;2023-07-29T02:00:55;99024.47;;;19.15;100.00
10638;BME280;47007;49.252;8.904;2023-07-29T02:01:37;98903.56;;;18.36;100.00
10638;BME280;47007;49.252;8.904;2023-07-29T02:02:19;99023.66;;;19.14;100.00
10638;BME280;47007;49.252;8.904;2023-07-29T02:03:00;99023.66;;;19.14;100.00
10638;BME280;47007;49.252;8.904;2023-07-29T02:03:42;98938.66;;;18.61;100.00
10638;BME280;47007;49.252;8.904;2023-07-29T02:04:24;99020.44;;;19.17;100.00
10638;BME280;47007;49.252;8.904;2023-07-29T02:05:05;98991.00;;;18.95;100.00
10638;BME280;47007;49.252;8.904;2023-07-29T02:05:47;99011.00;;;19.10;100.00
10638;BME280;47007;49.252;8.904;2023-07-29T02:06:29;99004.50;;;19.00;100.00
10638;BME280;47007;49.252;8.904;2023-07-29T02:07:10;98932.97;;;18.57;100.00
10638;BME280;47007;49.252;8.904;2023-07-29T02:07:52;99010.41;;;19.02;100.00
10638;BME280;47007;49.252;8.904;2023-07-29T02:08:34;99026.53;;;19.02;100.00
10638;BME280;47007;49.252;8.904;2023-07-29T02:09:16;98918.00;;;18.29;100.00
10638;BME280;47007;49.252;8.904;2023-07-29T02:09:57;99026.72;;;18.96;100.00
10638;BME280;47007;49.252;8.904;2023-07-29T02:10:40;99002.16;;;18.77;100.00
10638;BME280;47007;49.252;8.904;2023-07-29T02:11:22;98969.25;;;18.60;100.00
10638;BME280;47007;49.252;8.904;2023-07-29T02:12:09;99017.84;;;18.90;100.00
10638;BME280;47007;49.252;8.904;2023-07-29T02:12:53;98915.19;;;18.14;100.00
10638;BME280;47007;49.252;8.904;2023-07-29T02:13:35;99025.16;;;19.00;100.00
10638;BME280;47007;49.252;8.904;2023-07-29T02:14:17;99036.47;;;19.02;100.00
10638;BME280;47007;49.252;8.904;2023-07-29T02:14:58;98940.75;;;18.54;100.00
10638;BME280;47007;49.252;8.904;2023-07-29T02:15:40;98943.97;;;18.56;100.00
10638;BME280;47007;49.252;8.904;2023-07-29T02:16:22;99016.06;;;19.06;100.00
10638;BME280;47007;49.252;8.904;2023-07-29T02:17:05;99015.50;;;19.04;100.00
10638;BME280;47007;49.252;8.904;2023-07-29T02:17:46;99023.06;;;19.07;100.00
10638;BME280;47007;49.252;8.904;2023-07-29T02:18:28;98943.69;;;18.57;100.00
10638;BME280;47007;49.252;8.904;2023-07-29T02:19:10;99025.53;;;19.14;100.00
10638;BME280;47007;49.252;8.904;2023-07-29T02:19:52;99013.09;;;19.02;100.00
10638;BME280;47007;49.252;8.904;2023-07-29T02:20:33;99016.31;;;19.05;100.00
10638;BME280;47007;49.252;8.904;2023-07-29T02:21:16;99015.81;;;19.08;100.00
10638;BME280;47007;49.252;8.904;2023-07-29T02:21:57;98998.31;;;19.00;100.00
10638;BME280;47007;49.252;8.904;2023-07-29T02:22:39;99000.19;;;19.05;100.00
10638;BME280;47007;49.252;8.904;2023-07-29T02:23:21;99000.72;;;19.01;100.00
10638;BME280;47007;49.252;8.904;2023-07-29T02:24:03;98929.56;;;18.62;100.00
10638;BME280;47007;49.252;8.904;2023-07-29T02:24:45;99011.28;;;19.13;100.00
10638;BME280;47007;49.252;8.904;2023-07-29T02:25:26;98979.19;;;18.91;100.00
10638;BME280;47007;49.252;8.904;2023-07-29T02:26:08;98957.03;;;18.79;100.00
10638;BME280;47007;49.252;8.904;2023-07-29T02:26:50;99000.19;;;19.05;100.00
10638;BME280;47007;49.252;8.904;2023-07-29T02:27:31;99020.09;;;19.09;100.00
10638;BME280;47007;49.252;8.904;2023-07-29T02:28:14;98978.31;;;18.86;100.00
10638;BME280;47007;49.252;8.904;2023-07-29T02:28:56;98981.19;;;18.74;100.00
10638;BME280;47007;49.252;8.904;2023-07-29T02:29:38;99045.59;;;19.01;100.00
10638;BME280;47007;49.252;8.904;2023-07-29T02:30:20;99018.09;;;18.89;100.00
10638;BME280;47007;49.252;8.904;2023-07-29T02:31:15;99020.56;;;18.95;100.00
10638;BME280;47007;49.252;8.904;2023-07-29T02:32:01;98986.06;;;18.77;100.00
10638;BME280;47007;49.252;8.904;2023-07-29T02:32:43;99001.69;;;18.85;100.00
10638;BME280;47007;49.252;8.904;2023-07-29T02:33:25;98990.06;;;18.80;100.00
10638;BME280;47007;49.252;8.904;2023-07-29T02:34:07;98984.72;;;18.80;100.00
10638;BME280;47007;49.252;8.904;2023-07-29T02:34:49;98950.78;;;18.63;100.00
10638;BME280;47007;49.252;8.904;2023-07-29T02:35:30;99015.25;;;19.06;100.00
10638;BME280;47007;49.252;8.904;2023-07-29T02:36:13;99002.59;;;19.01;100.00
10638;BME280;47007;49.252;8.904;2023-07-29T02:36:55;98994.19;;;18.92;100.00
10638;BME280;47007;49.252;8.904;2023-07-29T02:37:37;98968.03;;;18.73;100.00
10638;BME280;47007;49.252;8.904;2023-07-29T02:38:19;99009.06;;;19.05;100.00
10638;BME280;47007;49.252;8.904;2023-07-29T02:39:00;99009.06;;;19.05;100.00
10638;BME280;47007;49.252;8.904;2023-07-29T02:39:44;99004.50;;;19.06;100.00
10638;BME280;47007;49.252;8.904;2023-07-29T02:40:26;98976.16;;;18.83;100.00
10638;BME280;47007;49.252;8.904;2023-07-29T02:41:10;98946.78;;;18.66;100.00
10638;BME280;47007;49.252;8.904;2023-07-29T02:41:53;99037.09;;;19.19;100.00
10638;BME280;47007;49.252;8.904;2023-07-29T02:42:36;99030.91;;;19.19;100.00
10638;BME280;47007;49.252;8.904;2023-07-29T02:43:18;99029.84;;;19.20;100.00
10638;BME280;47007;49.252;8.904;2023-07-29T02:44:01;99005.88;;;19.08;100.00
10638;BME280;47007;49.252;8.904;2023-07-29T02:44:43;98926.06;;;18.61;100.00
10638;BME280;47007;49.252;8.904;2023-07-29T02:45:24;99017.03;;;19.27;100.00
10638;BME280;47007;49.252;8.904;2023-07-29T02:46:06;99017.28;;;19.30;100.00
10638;BME280;47007;49.252;8.904;2023-07-29T02:46:48;99002.72;;;19.16;100.00
10638;BME280;47007;49.252;8.904;2023-07-29T02:47:30;98923.16;;;18.68;100.00
10638;BME280;47007;49.252;8.904;2023-07-29T02:48:11;98933.44;;;18.81;100.00
10638;BME280;47007;49.252;8.904;2023-07-29T02:48:53;98973.84;;;18.96;100.00
10638;BME280;47007;49.252;8.904;2023-07-29T02:49:35;99015.09;;;19.22;100.00
10638;BME280;47007;49.252;8.904;2023-07-29T02:50:16;99012.38;;;19.17;100.00
10638;BME280;47007;49.252;8.904;2023-07-29T02:50:58;98953.53;;;18.74;100.00
10638;BME280;47007;49.252;8.904;2023-07-29T02:51:40;99016.88;;;19.07;100.00
10638;BME280;47007;49.252;8.904;2023-07-29T02:52:22;98963.97;;;18.70;100.00
10638;BME280;47007;49.252;8.904;2023-07-29T02:53:03;98968.53;;;18.70;100.00
10638;BME280;47007;49.252;8.904;2023-07-29T02:53:45;99027.25;;;18.93;100.00
10638;BME280;47007;49.252;8.904;2023-07-29T02:54:27;99022.47;;;19.00;100.00
10638;BME280;47007;49.252;8.904;2023-07-29T02:55:09;99023.78;;;18.97;100.00
10638;BME280;47007;49.252;8.904;2023-07-29T02:55:51;99024.78;;;18.86;100.00
10638;BME280;47007;49.252;8.904;2023-07-29T02:56:33;98951.94;;;18.46;100.00
10638;BME280;47007;49.252;8.904;2023-07-29T02:57:16;99012.09;;;18.77;100.00
10638;BME280;47007;49.252;8.904;2023-07-29T02:57:58;99032.84;;;18.86;100.00
10638;BME280;47007;49.252;8.904;2023-07-29T02:58:40;99037.16;;;18.92;100.00
10638;BME280;47007;49.252;8.904;2023-07-29T02:59:23;99019.91;;;18.78;100.00
10638;BME280;47007;49.252;8.904;2023-07-29T03:00:05;99019.66;;;18.85;100.00
10638;BME280;47007;49.252;8.904;2023-07-29T03:00:49;99019.66;;;18.85;100.00
10638;BME280;47007;49.252;8.904;2023-07-29T03:01:32;99041.28;;;19.00;100.00
10638;BME280;47007;49.252;8.904;2023-07-29T03:02:14;99037.28;;;19.02;100.00
10638;BME280;47007;49.252;8.904;2023-07-29T03:02:57;99040.47;;;19.05;100.00
10638;BME280;47007;49.252;8.904;2023-07-29T03:03:39;98974.38;;;18.61;100.00
10638;BME280;47007;49.252;8.904;2023-07-29T03:04:21;99043.72;;;19.07;100.00
10638;BME280;47007;49.252;8.904;2023-07-29T03:05:03;99044.84;;;19.11;100.00
10638;BME280;47007;49.252;8.904;2023-07-29T03:05:45;99049.72;;;19.14;100.00
10638;BME280;47007;49.252;8.904;2023-07-29T03:06:27;99018.16;;;18.99;100.00
10638;BME280;47007;49.252;8.904;2023-07-29T03:07:09;99059.66;;;19.18;100.00
10638;BME280;47007;49.252;8.904;2023-07-29T03:07:51;99052.94;;;19.16;100.00
10638;BME280;47007;49.252;8.904;2023-07-29T03:08:33;99038.97;;;19.14;100.00
10638;BME280;47007;49.252;8.904;2023-07-29T03:09:15;99057.34;;;19.27;100.00
10638;BME280;47007;49.252;8.904;2023-07-29T03:09:56;99061.41;;;19.34;100.00
10638;BME280;47007;49.252;8.904;2023-07-29T03:10:38;99020.16;;;19.14;100.00
10638;BME280;47007;49.252;8.904;2023-07-29T03:11:20;99043.66;;;19.33;100.00
10638;BME280;47007;49.252;8.904;2023-07-29T03:12:01;98974.88;;;18.90;100.00
10638;BME280;47007;49.252;8.904;2023-07-29T03:12:43;99039.09;;;19.34;100.00
10638;BME280;47007;49.252;8.904;2023-07-29T03:13:25;99040.72;;;19.35;100.00
10638;BME280;47007;49.252;8.904;2023-07-29T03:14:06;99023.22;;;19.32;100.00
10638;BME280;47007;49.252;8.904;2023-07-29T03:14:48;98993.84;;;19.16;100.00
10638;BME280;47007;49.252;8.904;2023-07-29T03:15:31;98976.56;;;19.01;100.00
10638;BME280;47007;49.252;8.904;2023-07-29T03:16:16;99001.94;;;19.21;100.00
10638;BME280;47007;49.252;8.904;2023-07-29T03:17:05;99007.78;;;19.13;100.00
10638;BME280;47007;49.252;8.904;2023-07-29T03:17:47;98993.19;;;18.98;100.00
10638;BME280;47007;49.252;8.904;2023-07-29T03:18:28;98985.88;;;18.89;100.00
10638;BME280;47007;49.252;8.904;2023-07-29T03:19:10;98997.69;;;18.93;100.00
10638;BME280;47007;49.252;8.904;2023-07-29T03:19:52;99008.19;;;18.94;100.00
10638;BME280;47007;49.252;8.904;2023-07-29T03:20:33;99021.88;;;18.93;100.00
10638;BME280;47007;49.252;8.904;2023-07-29T03:21:15;99000.63;;;18.86;100.00
10638;BME280;47007;49.252;8.904;2023-07-29T03:21:57;99005.47;;;18.89;100.00
10638;BME280;47007;49.252;8.904;2023-07-29T03:22:39;99006.78;;;18.87;100.00
10638;BME280;47007;49.252;8.904;2023-07-29T03:23:20;98951.94;;;18.46;100.00
10638;BME280;47007;49.252;8.904;2023-07-29T03:24:02;99009.47;;;18.87;100.00
10638;BME280;47007;49.252;8.904;2023-07-29T03:24:44;99004.88;;;18.82;100.00
10638;BME280;47007;49.252;8.904;2023-07-29T03:25:26;99013.75;;;18.83;100.00
10638;BME280;47007;49.252;8.904;2023-07-29T03:26:07;98982.19;;;18.68;100.00
10638;BME280;47007;49.252;8.904;2023-07-29T03:26:53;98994.94;;;18.83;100.00
10638;BME280;47007;49.252;8.904;2023-07-29T03:27:34;98995.50;;;18.85;100.00
10638;BME280;47007;49.252;8.904;2023-07-29T03:28:17;98982.81;;;18.75;100.00
10638;BME280;47007;49.252;8.904;2023-07-29T03:28:59;98997.38;;;18.84;100.00
10638;BME280;47007;49.252;8.904;2023-07-29T03:29:41;98992.75;;;18.80;100.00
10638;BME280;47007;49.252;8.904;2023-07-29T03:30:23;98974.44;;;18.72;100.00
10638;BME280;47007;49.252;8.904;2023-07-29T03:31:06;98985.53;;;18.80;100.00
10638;BME280;47007;49.252;8.904;2023-07-29T03:31:49;98995.00;;;18.88;100.00
10638;BME280;47007;49.252;8.904;2023-07-29T03:32:30;98970.94;;;18.66;100.00
10638;BME280;47007;49.252;8.904;2023-07-29T03:33:12;98977.69;;;18.74;100.00
10638;BME280;47007;49.252;8.904;2023-07-29T03:33:54;98915.91;;;18.37;100.00
10638;BME280;47007;49.252;8.904;2023-07-29T03:34:35;98891.88;;;18.20;100.00
10638;BME280;47007;49.252;8.904;2023-07-29T03:35:17;98979.06;;;18.76;100.00
10638;BME280;47007;49.252;8.904;2023-07-29T03:35:59;98995.00;;;18.88;100.00
10638;BME280;47007;49.252;8.904;2023-07-29T03:36:41;98956.16;;;18.63;100.00
10638;BME280;47007;49.252;8.904;2023-07-29T03:37:22;98939.28;;;18.41;100.00
10638;BME280;47007;49.252;8.904;2023-07-29T03:38:04;98993.13;;;18.88;100.00
10638;BME280;47007;49.252;8.904;2023-07-29T03:38:46;98991.44;;;18.82;100.00
10638;BME280;47007;49.252;8.904;2023-07-29T03:39:27;98979.63;;;18.78;100.00
10638;BME280;47007;49.252;8.904;2023-07-29T03:40:09;98972.28;;;18.69;100.00
10638;BME280;47007;49.252;8.904;2023-07-29T03:40:51;99014.53;;;18.78;100.00
10638;BME280;47007;49.252;8.904;2023-07-29T03:41:33;98984.44;;;18.76;100.00
10638;BME280;47007;49.252;8.904;2023-07-29T03:42:15;98981.69;;;18.71;100.00
10638;BME280;47007;49.252;8.904;2023-07-29T03:42:56;98988.19;;;18.75;100.00
10638;BME280;47007;49.252;8.904;2023-07-29T03:43:38;98984.44;;;18.76;100.00
10638;BME280;47007;49.252;8.904;2023-07-29T03:44:19;98980.69;;;18.77;100.00
10638;BME280;47007;49.252;8.904;2023-07-29T03:45:01;98983.91;;;18.79;100.00
10638;BME280;47007;49.252;8.904;2023-07-29T03:45:43;98978.28;;;18.81;100.00
10638;BME280;47007;49.252;8.904;2023-07-29T03:46:25;98917.28;;;18.39;100.00
10638;BME280;47007;49.252;8.904;2023-07-29T03:47:07;98951.06;;;18.67;100.00
10638;BME280;47007;49.252;8.904;2023-07-29T03:47:50;98956.16;;;18.69;100.00
10638;BME280;47007;49.252;8.904;2023-07-29T03:48:32;98976.69;;;18.85;100.00
10638;BME280;47007;49.252;8.904;2023-07-29T03:49:13;98953.47;;;18.63;100.00
10638;BME280;47007;49.252;8.904;2023-07-29T03:49:55;98889.84;;;18.32;100.00